Time;durP1;ratioP1;P1;durP2;ratioP2;P2;SDS_P1;SDS_P2;PMS_P1;PMS_P2;Temp;Humidity;BMP_temperature;BMP_pressure;BME280_temperature;BME280_humidity;BME280_pressure;Samples;Min_cycle;Max_cycle;Signal;HPM_P1;HPM_P2
2023/08/08 00:04:11;;;;;;;5.53;2.10;;;;;;;;;;5062816;28;20097;-68
2023/08/08 00:06:37;;;;;;;4.40;1.88;;;;;;;;;;5064528;28;20050;-67
2023/08/08 00:09:04;;;;;;;6.00;2.20;;;;;;;;;;5066141;28;20036;-67
2023/08/08 00:11:30;;;;;;;5.82;2.53;;;;;;;;;;5063813;28;20035;-68
2023/08/08 00:13:56;;;;;;;7.00;2.25;;;;;;;;;;5065433;28;20028;-68
2023/08/08 00:16:23;;;;;;;6.50;2.38;;;;;;;;;;5064173;28;20036;-67
2023/08/08 00:18:50;;;;;;;6.00;2.65;;;;;;;;;;5064431;28;20114;-67
2023/08/08 00:21:16;;;;;;;5.80;2.45;;;;;;;;;;5046865;28;20047;-67
2023/08/08 00:23:42;;;;;;;6.32;2.47;;;;;;;;;;5065466;28;20032;-68
2023/08/08 00:26:08;;;;;;;4.95;2.00;;;;;;;;;;5064234;28;21304;-67
2023/08/08 00:28:34;;;;;;;5.82;2.10;;;;;;;;;;5064521;28;20519;-68
2023/08/08 00:31:00;;;;;;;4.93;2.40;;;;;;;;;;5063832;28;20016;-67
2023/08/08 00:33:26;;;;;;;5.97;2.17;;;;;;;;;;5056894;28;20044;-67
2023/08/08 00:35:52;;;;;;;6.85;2.45;;;;;;;;;;5063098;28;20040;-68
2023/08/08 00:38:19;;;;;;;4.53;1.95;;;;;;;;;;5036615;28;20033;-67
2023/08/08 00:40:45;;;;;;;7.13;2.60;;;;;;;;;;5062523;28;20485;-68
2023/08/08 00:43:11;;;;;;;7.68;2.30;;;;;;;;;;5065293;28;20580;-68
2023/08/08 00:45:38;;;;;;;5.57;2.00;;;;;;;;;;5065478;28;20726;-67
2023/08/08 00:48:04;;;;;;;6.25;2.30;;;;;;;;;;5064425;28;20051;-67
2023/08/08 00:50:30;;;;;;;7.40;2.22;;;;;;;;;;5065031;28;20020;-68
2023/08/08 00:52:56;;;;;;;6.38;2.20;;;;;;;;;;5048096;28;20049;-68
2023/08/08 00:55:23;;;;;;;7.10;2.97;;;;;;;;;;5066376;28;20025;-67
2023/08/08 00:57:49;;;;;;;8.32;1.95;;;;;;;;;;5046592;28;20031;-67
2023/08/08 01:00:15;;;;;;;5.13;2.05;;;;;;;;;;5066616;28;20036;-67
2023/08/08 01:02:41;;;;;;;4.63;2.10;;;;;;;;;;5055149;28;20127;-67
2023/08/08 01:05:07;;;;;;;5.97;2.55;;;;;;;;;;5039734;28;20063;-67
2023/08/08 01:07:36;;;;;;;5.78;2.10;;;;;;;;;;5039073;28;20041;-67
2023/08/08 01:10:07;;;;;;;6.18;2.40;;;;;;;;;;5040546;28;20029;-67
2023/08/08 01:12:35;;;;;;;4.47;1.80;;;;;;;;;;5041497;28;20037;-65
2023/08/08 01:15:01;;;;;;;5.72;2.35;;;;;;;;;;5040195;28;20037;-67
2023/08/08 01:17:28;;;;;;;8.13;2.63;;;;;;;;;;5039006;28;20071;-66
2023/08/08 01:19:54;;;;;;;4.88;2.22;;;;;;;;;;5039808;28;20033;-66
2023/08/08 01:22:25;;;;;;;4.93;2.00;;;;;;;;;;5037699;28;20036;-67
2023/08/08 01:24:52;;;;;;;9.13;2.05;;;;;;;;;;5037873;28;20457;-68
2023/08/08 01:27:18;;;;;;;6.28;2.03;;;;;;;;;;5038582;28;20029;-68
2023/08/08 01:29:44;;;;;;;7.13;2.70;;;;;;;;;;5038361;28;20979;-67
2023/08/08 01:32:11;;;;;;;6.63;2.00;;;;;;;;;;5038250;28;20028;-67
2023/08/08 01:34:37;;;;;;;8.20;2.30;;;;;;;;;;5037400;28;20040;-68
2023/08/08 01:37:07;;;;;;;7.70;2.42;;;;;;;;;;5020104;28;20094;-68
2023/08/08 01:39:34;;;;;;;8.48;2.15;;;;;;;;;;5037758;28;21736;-67
2023/08/08 01:42:01;;;;;;;4.93;2.03;;;;;;;;;;5037876;28;20040;-67
2023/08/08 01:44:28;;;;;;;4.82;2.17;;;;;;;;;;5039555;28;20028;-67
2023/08/08 01:46:54;;;;;;;6.60;1.88;;;;;;;;;;5037763;28;20033;-68
2023/08/08 01:49:20;;;;;;;6.55;2.10;;;;;;;;;;5038884;28;20033;-68
2023/08/08 01:51:48;;;;;;;7.65;2.00;;;;;;;;;;5037872;28;20035;-68
2023/08/08 01:54:14;;;;;;;6.28;2.30;;;;;;;;;;5038659;28;20036;-67
2023/08/08 01:56:40;;;;;;;5.20;2.60;;;;;;;;;;5038269;28;20044;-68
2023/08/08 01:59:06;;;;;;;7.30;2.20;;;;;;;;;;5037654;28;20041;-68
2023/08/08 02:01:32;;;;;;;8.93;2.78;;;;;;;;;;5038921;28;20074;-68
2023/08/08 02:03:58;;;;;;;5.88;2.00;;;;;;;;;;5038065;28;20555;-67
2023/08/08 02:06:24;;;;;;;8.27;2.60;;;;;;;;;;5033722;28;20403;-67
2023/08/08 02:08:50;;;;;;;6.68;2.20;;;;;;;;;;5036118;28;20394;-67
2023/08/08 02:11:16;;;;;;;8.32;2.53;;;;;;;;;;5033938;28;20029;-67
2023/08/08 02:13:42;;;;;;;5.03;2.70;;;;;;;;;;5035408;28;20037;-68
2023/08/08 02:16:08;;;;;;;5.78;2.25;;;;;;;;;;5034718;28;20021;-68
2023/08/08 02:18:36;;;;;;;6.88;2.20;;;;;;;;;;5033714;28;20033;-67
2023/08/08 02:21:02;;;;;;;8.00;2.42;;;;;;;;;;5034881;28;20036;-67
2023/08/08 02:23:28;;;;;;;7.50;2.85;;;;;;;;;;5033610;28;20040;-67
2023/08/08 02:25:54;;;;;;;8.13;2.50;;;;;;;;;;5036261;28;20032;-67
2023/08/08 02:28:20;;;;;;;7.65;2.40;;;;;;;;;;5003424;28;20144;-68
2023/08/08 02:30:46;;;;;;;14.63;2.78;;;;;;;;;;5035588;28;20139;-67
2023/08/08 02:33:12;;;;;;;6.80;2.55;;;;;;;;;;5031228;28;20112;-67
2023/08/08 02:35:38;;;;;;;7.18;2.40;;;;;;;;;;5039161;28;20938;-67
2023/08/08 02:38:04;;;;;;;7.13;2.50;;;;;;;;;;5030977;28;20044;-68
2023/08/08 02:40:30;;;;;;;8.07;2.53;;;;;;;;;;5038335;28;20025;-67
2023/08/08 02:42:56;;;;;;;7.95;2.47;;;;;;;;;;5031428;28;20037;-68
2023/08/08 02:45:22;;;;;;;6.28;2.15;;;;;;;;;;5038243;28;20082;-68
2023/08/08 02:47:48;;;;;;;11.25;2.92;;;;;;;;;;5020504;28;20044;-68
2023/08/08 02:50:14;;;;;;;5.82;2.28;;;;;;;;;;5038417;28;20090;-67
2023/08/08 02:52:40;;;;;;;6.88;2.25;;;;;;;;;;5034450;28;20064;-67
2023/08/08 02:55:07;;;;;;;5.32;2.40;;;;;;;;;;5041876;28;20071;-67
2023/08/08 02:57:33;;;;;;;7.82;2.00;;;;;;;;;;5029000;28;20037;-67
2023/08/08 02:59:59;;;;;;;6.88;2.00;;;;;;;;;;5040483;28;20098;-67
2023/08/08 03:02:25;;;;;;;8.85;2.78;;;;;;;;;;5029596;28;20029;-67
2023/08/08 03:04:51;;;;;;;6.70;2.17;;;;;;;;;;5040637;28;20915;-67
2023/08/08 03:07:17;;;;;;;8.75;2.35;;;;;;;;;;5037749;28;20095;-68
2023/08/08 03:09:43;;;;;;;7.57;2.10;;;;;;;;;;5039300;28;20033;-67
2023/08/08 03:12:10;;;;;;;9.20;2.00;;;;;;;;;;5031338;28;20075;-68
2023/08/08 03:14:36;;;;;;;5.85;1.92;;;;;;;;;;5038154;28;20033;-68
2023/08/08 03:17:02;;;;;;;8.15;1.85;;;;;;;;;;5038670;28;20110;-68
2023/08/08 03:19:28;;;;;;;5.75;1.75;;;;;;;;;;5036379;28;20127;-68
2023/08/08 03:21:54;;;;;;;3.92;1.42;;;;;;;;;;5033990;28;20488;-68
2023/08/08 03:24:20;;;;;;;5.90;1.60;;;;;;;;;;5035477;28;20459;-68
2023/08/08 03:26:46;;;;;;;4.88;1.63;;;;;;;;;;5041662;28;20439;-67
2023/08/08 03:29:12;;;;;;;4.20;1.50;;;;;;;;;;5041464;28;20083;-68
2023/08/08 03:31:38;;;;;;;5.18;1.40;;;;;;;;;;5034106;28;20037;-68
2023/08/08 03:34:04;;;;;;;5.28;1.60;;;;;;;;;;5034106;28;20036;-68
2023/08/08 03:36:31;;;;;;;4.85;1.70;;;;;;;;;;5023346;28;20074;-67
2023/08/08 03:38:57;;;;;;;6.28;1.67;;;;;;;;;;5034314;28;20033;-68
2023/08/08 03:41:23;;;;;;;4.72;1.48;;;;;;;;;;5041642;28;20060;-67
2023/08/08 03:43:49;;;;;;;3.60;1.20;;;;;;;;;;5034055;28;20507;-68
2023/08/08 03:46:15;;;;;;;5.35;1.10;;;;;;;;;;5041109;28;20391;-68
2023/08/08 03:48:41;;;;;;;3.15;1.42;;;;;;;;;;5033195;28;20071;-67
2023/08/08 03:51:07;;;;;;;7.63;1.70;;;;;;;;;;5032433;28;20056;-67
2023/08/08 03:53:34;;;;;;;2.90;1.27;;;;;;;;;;5033841;28;20040;-67
2023/08/08 03:56:00;;;;;;;6.65;1.92;;;;;;;;;;5040537;28;20037;-67
2023/08/08 03:58:26;;;;;;;4.32;1.58;;;;;;;;;;5033108;28;20046;-67
2023/08/08 04:00:52;;;;;;;4.18;1.50;;;;;;;;;;5039171;28;20059;-67
2023/08/08 04:03:18;;;;;;;4.55;1.30;;;;;;;;;;5032030;28;20049;-67
2023/08/08 04:05:48;;;;;;;5.80;1.50;;;;;;;;;;5039493;28;20025;-67
2023/08/08 04:08:15;;;;;;;4.75;1.40;;;;;;;;;;5033346;28;20055;-67
2023/08/08 04:10:41;;;;;;;5.55;1.40;;;;;;;;;;5039931;28;20032;-67
2023/08/08 04:13:07;;;;;;;4.30;1.58;;;;;;;;;;5034460;28;20509;-67
2023/08/08 04:15:33;;;;;;;4.70;1.50;;;;;;;;;;5040983;28;20021;-67
2023/08/08 04:18:00;;;;;;;5.05;1.50;;;;;;;;;;5033322;28;20399;-67
2023/08/08 04:20:26;;;;;;;5.97;1.45;;;;;;;;;;5040527;28;20033;-67
2023/08/08 04:22:52;;;;;;;5.65;1.50;;;;;;;;;;5032980;28;20099;-67
2023/08/08 04:25:19;;;;;;;9.40;1.75;;;;;;;;;;5040929;28;20110;-67
2023/08/08 04:27:45;;;;;;;5.43;1.67;;;;;;;;;;5032631;28;20122;-67
2023/08/08 04:30:11;;;;;;;6.93;1.73;;;;;;;;;;5040261;28;20136;-67
2023/08/08 04:32:37;;;;;;;11.13;2.53;;;;;;;;;;5034338;28;20033;-67
2023/08/08 04:35:03;;;;;;;5.75;1.52;;;;;;;;;;5038851;28;20041;-67
2023/08/08 04:37:29;;;;;;;7.63;1.50;;;;;;;;;;5026685;28;20036;-67
2023/08/08 04:39:55;;;;;;;5.88;1.15;;;;;;;;;;5038616;28;21011;-67
2023/08/08 04:42:21;;;;;;;5.60;1.35;;;;;;;;;;5034760;28;20040;-67
2023/08/08 04:44:48;;;;;;;5.65;1.63;;;;;;;;;;5038379;28;20025;-67
2023/08/08 04:47:14;;;;;;;5.85;1.30;;;;;;;;;;5035984;28;21285;-67
2023/08/08 04:49:40;;;;;;;4.82;1.30;;;;;;;;;;5036872;28;20028;-67
2023/08/08 04:52:06;;;;;;;3.35;1.35;;;;;;;;;;5030008;28;20032;-67
2023/08/08 04:54:32;;;;;;;5.75;1.30;;;;;;;;;;5022906;28;20444;-67
2023/08/08 04:56:58;;;;;;;4.95;1.65;;;;;;;;;;5029859;28;20594;-67
2023/08/08 04:59:24;;;;;;;4.85;1.27;;;;;;;;;;5034306;28;20494;-67
2023/08/08 05:01:50;;;;;;;5.18;1.38;;;;;;;;;;5038691;28;20106;-68
2023/08/08 05:04:17;;;;;;;7.70;1.58;;;;;;;;;;5033389;28;20057;-67
2023/08/08 05:06:43;;;;;;;5.95;1.75;;;;;;;;;;5039013;28;20112;-68
2023/08/08 05:09:09;;;;;;;8.77;1.30;;;;;;;;;;5031658;28;20072;-67
2023/08/08 05:11:36;;;;;;;6.68;1.33;;;;;;;;;;5039933;28;20037;-68
2023/08/08 05:14:02;;;;;;;11.50;2.05;;;;;;;;;;5032285;28;20064;-68
2023/08/08 05:16:29;;;;;;;5.30;1.10;;;;;;;;;;5038760;28;20372;-68
2023/08/08 05:18:55;;;;;;;6.55;1.20;;;;;;;;;;5039400;28;20403;-68
2023/08/08 05:21:22;;;;;;;8.32;1.58;;;;;;;;;;5038790;28;20119;-68
2023/08/08 05:23:48;;;;;;;5.82;1.60;;;;;;;;;;5032218;28;20047;-68
2023/08/08 05:26:14;;;;;;;6.72;1.65;;;;;;;;;;5038445;28;20032;-68
2023/08/08 05:28:40;;;;;;;5.97;1.60;;;;;;;;;;5039327;28;20037;-68
2023/08/08 05:31:06;;;;;;;6.70;1.25;;;;;;;;;;5039451;28;20068;-68
2023/08/08 05:33:32;;;;;;;6.13;1.48;;;;;;;;;;5031571;28;20081;-68
2023/08/08 05:35:59;;;;;;;7.78;1.75;;;;;;;;;;5036647;28;20051;-68
2023/08/08 05:38:25;;;;;;;6.47;1.50;;;;;;;;;;5027211;28;20025;-68
2023/08/08 05:40:51;;;;;;;9.13;1.98;;;;;;;;;;5039207;28;20033;-68
2023/08/08 05:43:18;;;;;;;8.27;1.67;;;;;;;;;;5038958;28;20037;-68
2023/08/08 05:45:47;;;;;;;5.30;1.40;;;;;;;;;;5038392;28;20032;-68
2023/08/08 05:48:13;;;;;;;5.50;1.50;;;;;;;;;;5032674;28;20149;-68
2023/08/08 05:50:39;;;;;;;5.57;1.48;;;;;;;;;;5038472;28;20029;-68
2023/08/08 05:53:05;;;;;;;7.65;1.40;;;;;;;;;;5024762;28;20033;-67
2023/08/08 05:55:32;;;;;;;9.00;1.25;;;;;;;;;;5038196;28;20028;-68
2023/08/08 05:57:58;;;;;;;3.53;1.05;;;;;;;;;;5031542;28;20468;-68
2023/08/08 06:00:24;;;;;;;6.00;1.10;;;;;;;;;;5038771;28;20039;-68
2023/08/08 06:02:50;;;;;;;6.47;1.45;;;;;;;;;;5031043;28;20118;-68
2023/08/08 06:05:22;;;;;;;4.25;1.30;;;;;;;;;;5021268;28;20040;-68
2023/08/08 06:07:48;;;;;;;4.82;1.33;;;;;;;;;;5031743;28;20040;-68
2023/08/08 06:10:14;;;;;;;4.53;1.83;;;;;;;;;;5038401;28;20061;-68
2023/08/08 06:12:40;;;;;;;6.20;1.00;;;;;;;;;;5037646;28;20681;-68
2023/08/08 06:15:06;;;;;;;6.68;1.13;;;;;;;;;;5037936;28;20043;-68
2023/08/08 06:17:32;;;;;;;7.88;1.42;;;;;;;;;;5037842;28;20752;-68
2023/08/08 06:19:59;;;;;;;6.35;1.67;;;;;;;;;;5038309;28;20091;-68
2023/08/08 06:22:25;;;;;;;6.22;1.25;;;;;;;;;;5032931;28;20045;-68
2023/08/08 06:24:51;;;;;;;5.53;1.27;;;;;;;;;;5035205;28;20025;-68
2023/08/08 06:27:18;;;;;;;9.48;1.23;;;;;;;;;;5037789;28;20025;-68
2023/08/08 06:29:44;;;;;;;8.10;1.73;;;;;;;;;;5039718;28;20033;-68
2023/08/08 06:32:10;;;;;;;6.82;1.10;;;;;;;;;;5037698;28;20072;-68
2023/08/08 06:34:36;;;;;;;7.65;1.60;;;;;;;;;;5038023;28;20036;-69
2023/08/08 06:37:02;;;;;;;5.80;1.40;;;;;;;;;;5039781;28;20036;-68
2023/08/08 06:39:28;;;;;;;7.93;1.38;;;;;;;;;;5038509;28;20728;-68
2023/08/08 06:41:54;;;;;;;8.40;1.50;;;;;;;;;;5040662;28;20459;-68
2023/08/08 06:44:20;;;;;;;3.63;1.10;;;;;;;;;;5035678;28;20534;-68
2023/08/08 06:46:46;;;;;;;11.25;2.20;;;;;;;;;;5041314;28;20391;-68
2023/08/08 06:49:12;;;;;;;9.68;1.50;;;;;;;;;;5035672;28;20060;-68
2023/08/08 06:51:38;;;;;;;7.85;1.25;;;;;;;;;;5041819;28;21811;-68
2023/08/08 06:54:05;;;;;;;9.57;1.30;;;;;;;;;;5033712;28;20430;-68
2023/08/08 06:56:31;;;;;;;11.60;2.08;;;;;;;;;;5041201;28;20033;-69
2023/08/08 06:58:57;;;;;;;5.90;1.35;;;;;;;;;;5033309;28;20055;-68
2023/08/08 07:01:23;;;;;;;8.15;1.70;;;;;;;;;;5040261;28;20029;-68
2023/08/08 07:03:49;;;;;;;5.25;1.63;;;;;;;;;;5040952;28;20442;-69
2023/08/08 07:06:17;;;;;;;7.07;1.35;;;;;;;;;;5041082;28;20025;-69
2023/08/08 07:08:43;;;;;;;8.30;1.52;;;;;;;;;;5034041;28;20060;-68
2023/08/08 07:11:09;;;;;;;6.40;1.33;;;;;;;;;;5041319;28;20036;-68
2023/08/08 07:13:35;;;;;;;8.55;1.73;;;;;;;;;;5041854;28;20514;-69
2023/08/08 07:16:01;;;;;;;5.93;1.25;;;;;;;;;;5041475;28;20068;-69
2023/08/08 07:18:27;;;;;;;8.65;1.20;;;;;;;;;;5041342;28;20040;-69
2023/08/08 07:20:53;;;;;;;9.90;1.45;;;;;;;;;;5042006;28;20036;-68
2023/08/08 07:23:19;;;;;;;6.05;1.88;;;;;;;;;;5033936;28;20044;-68
2023/08/08 07:25:46;;;;;;;7.30;1.50;;;;;;;;;;5042170;28;20029;-68
2023/08/08 07:28:14;;;;;;;5.15;1.08;;;;;;;;;;5034362;28;20039;-69
2023/08/08 07:30:40;;;;;;;8.18;1.10;;;;;;;;;;5040884;28;20036;-69
2023/08/08 07:33:09;;;;;;;3.97;1.20;;;;;;;;;;5041172;28;20041;-68
2023/08/08 07:35:36;;;;;;;5.47;1.02;;;;;;;;;;5041639;28;20190;-68
2023/08/08 07:38:02;;;;;;;8.15;1.52;;;;;;;;;;5034222;28;20503;-69
2023/08/08 07:40:28;;;;;;;6.35;1.23;;;;;;;;;;5040154;28;20545;-68
2023/08/08 07:42:54;;;;;;;2.83;0.77;;;;;;;;;;5039947;28;20037;-69
2023/08/08 07:45:20;;;;;;;9.55;1.50;;;;;;;;;;5041310;28;20029;-68
2023/08/08 07:47:47;;;;;;;10.30;1.40;;;;;;;;;;5041332;28;20035;-68
2023/08/08 07:50:13;;;;;;;3.92;1.02;;;;;;;;;;5041473;28;20052;-68
2023/08/08 07:52:39;;;;;;;5.80;1.40;;;;;;;;;;5033966;28;20033;-68
2023/08/08 07:55:05;;;;;;;5.70;1.02;;;;;;;;;;5040865;28;20084;-69
2023/08/08 07:57:35;;;;;;;8.90;1.20;;;;;;;;;;5034886;28;20037;-68
2023/08/08 08:00:11;;;;;;;8.30;1.25;;;;;;;;;;5041048;28;20043;-68
2023/08/08 08:02:37;;;;;;;6.53;1.38;;;;;;;;;;5039602;28;20063;-69
2023/08/08 08:05:07;;;;;;;5.22;1.27;;;;;;;;;;5040537;28;20036;-69
2023/08/08 08:07:34;;;;;;;9.82;1.92;;;;;;;;;;5034617;28;20041;-68
2023/08/08 08:10:05;;;;;;;5.75;1.10;;;;;;;;;;5039730;28;20060;-69
2023/08/08 08:12:32;;;;;;;5.38;1.23;;;;;;;;;;5039827;28;20041;-68
2023/08/08 08:14:58;;;;;;;7.63;1.40;;;;;;;;;;5039079;28;21868;-68
2023/08/08 08:17:25;;;;;;;8.80;1.60;;;;;;;;;;5039492;28;20040;-68
2023/08/08 08:19:51;;;;;;;5.63;1.25;;;;;;;;;;5040173;28;20742;-68
2023/08/08 08:22:18;;;;;;;9.55;1.50;;;;;;;;;;5039279;28;20036;-68
2023/08/08 08:24:44;;;;;;;6.63;1.35;;;;;;;;;;5039667;28;20021;-68
2023/08/08 08:27:10;;;;;;;9.43;2.10;;;;;;;;;;5039438;28;20025;-68
2023/08/08 08:29:36;;;;;;;6.60;1.40;;;;;;;;;;5039790;28;20139;-68
2023/08/08 08:32:02;;;;;;;6.05;1.60;;;;;;;;;;5039909;28;20145;-68
2023/08/08 08:34:28;;;;;;;7.60;1.38;;;;;;;;;;5038379;28;20059;-68
2023/08/08 08:36:54;;;;;;;9.40;1.63;;;;;;;;;;5038388;28;20041;-68
2023/08/08 08:39:20;;;;;;;6.45;1.42;;;;;;;;;;5033335;28;20037;-68
2023/08/08 08:41:49;;;;;;;4.05;0.98;;;;;;;;;;5039717;28;20491;-68
2023/08/08 08:44:16;;;;;;;6.15;1.45;;;;;;;;;;5039230;28;20035;-69
2023/08/08 08:46:43;;;;;;;6.00;0.95;;;;;;;;;;5039140;28;20156;-68
2023/08/08 08:49:10;;;;;;;8.18;1.55;;;;;;;;;;5039378;28;20036;-68
2023/08/08 08:51:39;;;;;;;7.43;1.10;;;;;;;;;;5038941;28;20059;-68
2023/08/08 08:54:06;;;;;;;10.13;1.55;;;;;;;;;;5039813;28;20032;-68
2023/08/08 08:56:32;;;;;;;6.88;1.52;;;;;;;;;;5038850;28;20032;-68
2023/08/08 08:58:59;;;;;;;5.55;1.38;;;;;;;;;;5039488;28;20043;-68
2023/08/08 09:01:25;;;;;;;3.78;1.02;;;;;;;;;;5039364;28;20028;-68
2023/08/08 09:03:51;;;;;;;5.78;1.35;;;;;;;;;;5037685;28;20048;-68
2023/08/08 09:06:19;;;;;;;5.43;1.27;;;;;;;;;;5038834;28;20493;-68
2023/08/08 09:08:46;;;;;;;4.40;0.90;;;;;;;;;;5039426;28;20143;-68
2023/08/08 09:11:12;;;;;;;6.30;1.00;;;;;;;;;;5038919;28;20033;-63
2023/08/08 09:13:39;;;;;;;5.65;1.30;;;;;;;;;;5038083;28;20124;-62
2023/08/08 09:16:07;;;;;;;3.60;1.05;;;;;;;;;;5039225;28;20037;-62
2023/08/08 09:18:33;;;;;;;7.72;1.60;;;;;;;;;;5039146;28;21713;-62
2023/08/08 09:20:59;;;;;;;4.53;1.00;;;;;;;;;;5038534;28;20037;-62
2023/08/08 09:23:25;;;;;;;7.13;1.48;;;;;;;;;;5038828;28;20044;-62
2023/08/08 09:25:52;;;;;;;5.63;1.25;;;;;;;;;;5038885;28;20112;-62
2023/08/08 09:28:18;;;;;;;4.07;1.10;;;;;;;;;;5039005;28;20028;-62
2023/08/08 09:30:44;;;;;;;4.90;1.25;;;;;;;;;;5020690;28;20043;-62
2023/08/08 09:33:11;;;;;;;4.95;1.08;;;;;;;;;;5038985;28;20954;-62
2023/08/08 09:35:41;;;;;;;9.05;1.52;;;;;;;;;;5038998;28;20036;-63
2023/08/08 09:38:07;;;;;;;5.10;0.98;;;;;;;;;;5038512;28;20032;-62
2023/08/08 09:40:33;;;;;;;4.65;1.00;;;;;;;;;;5039363;28;20035;-62
2023/08/08 09:42:59;;;;;;;4.65;1.10;;;;;;;;;;5038307;28;20081;-62
2023/08/08 09:45:25;;;;;;;4.88;1.20;;;;;;;;;;5038788;28;20585;-62
2023/08/08 09:47:52;;;;;;;8.98;1.38;;;;;;;;;;5038269;28;20723;-62
2023/08/08 09:50:18;;;;;;;9.00;1.55;;;;;;;;;;5038805;28;20037;-62
2023/08/08 09:52:44;;;;;;;3.97;0.90;;;;;;;;;;5031282;28;20113;-62
2023/08/08 09:55:12;;;;;;;6.97;1.40;;;;;;;;;;5038987;28;20571;-62
2023/08/08 09:57:41;;;;;;;5.93;1.15;;;;;;;;;;5038204;28;20123;-62
2023/08/08 10:00:15;;;;;;;5.80;1.48;;;;;;;;;;5036407;28;20037;-63
2023/08/08 10:02:41;;;;;;;5.38;1.05;;;;;;;;;;5035928;28;21821;-62
2023/08/08 10:05:08;;;;;;;7.85;1.67;;;;;;;;;;5029773;28;20195;-62
2023/08/08 10:07:35;;;;;;;3.00;0.90;;;;;;;;;;5037157;28;20051;-62
2023/08/08 10:10:01;;;;;;;5.63;1.02;;;;;;;;;;5037828;28;20048;-62
2023/08/08 10:12:27;;;;;;;3.97;1.02;;;;;;;;;;5037860;28;20032;-62
2023/08/08 10:14:53;;;;;;;4.03;0.93;;;;;;;;;;5038140;28;20033;-62
2023/08/08 10:17:19;;;;;;;8.30;1.25;;;;;;;;;;5037862;28;20040;-62
2023/08/08 10:19:55;;;;;;;6.43;1.58;;;;;;;;;;5038478;28;20819;-62
2023/08/08 10:22:23;;;;;;;7.55;1.35;;;;;;;;;;5037819;28;20037;-62
2023/08/08 10:24:51;;;;;;;8.25;1.40;;;;;;;;;;5038482;28;20032;-62
2023/08/08 10:27:27;;;;;;;5.57;1.00;;;;;;;;;;5034378;28;20056;-62
2023/08/08 10:29:53;;;;;;;6.93;1.48;;;;;;;;;;5036411;28;20068;-62
2023/08/08 10:32:25;;;;;;;10.35;1.55;;;;;;;;;;5034405;28;20060;-62
2023/08/08 10:34:55;;;;;;;9.45;1.60;;;;;;;;;;5035039;28;20037;-62
2023/08/08 10:37:23;;;;;;;6.90;1.35;;;;;;;;;;5033380;28;20021;-62
2023/08/08 10:39:58;;;;;;;8.43;1.20;;;;;;;;;;5035064;28;20064;-62
2023/08/08 10:42:25;;;;;;;7.80;1.25;;;;;;;;;;5038164;28;20028;-62
2023/08/08 10:44:59;;;;;;;6.13;1.42;;;;;;;;;;5037878;28;20029;-62
2023/08/08 10:47:25;;;;;;;7.43;1.50;;;;;;;;;;5037872;28;20952;-62
2023/08/08 10:50:18;;;;;;;4.25;0.80;;;;;;;;;;5038022;28;20740;-62
2023/08/08 10:52:47;;;;;;;6.43;1.38;;;;;;;;;;5027450;28;20052;-62
2023/08/08 10:55:19;;;;;;;8.02;1.23;;;;;;;;;;5037760;28;20151;-62
2023/08/08 10:57:52;;;;;;;3.83;1.00;;;;;;;;;;5037442;28;21790;-62
2023/08/08 11:00:18;;;;;;;;;;;;;;;;;;5037725;28;20040;-62
2023/08/08 11:02:45;;;;;;;4.72;0.90;;;;;;;;;;5030654;28;20015;-62
2023/08/08 11:05:12;;;;;;;6.80;1.40;;;;;;;;;;5037037;28;20071;-62
2023/08/08 11:07:38;;;;;;;5.18;1.08;;;;;;;;;;5031265;28;20044;-62
2023/08/08 11:10:05;;;;;;;11.50;1.98;;;;;;;;;;5036989;28;20037;-62
2023/08/08 11:12:31;;;;;;;5.95;1.38;;;;;;;;;;5033383;28;20072;-62
2023/08/08 11:14:57;;;;;;;9.85;1.33;;;;;;;;;;5039749;28;20048;-62
2023/08/08 11:17:23;;;;;;;4.65;1.30;;;;;;;;;;5039995;28;20060;-62
2023/08/08 11:19:50;;;;;;;6.03;1.20;;;;;;;;;;5041649;28;20033;-62
2023/08/08 11:22:17;;;;;;;5.63;1.10;;;;;;;;;;5037769;28;20049;-62
2023/08/08 11:24:43;;;;;;;4.82;1.48;;;;;;;;;;5030879;28;20060;-62
2023/08/08 11:27:09;;;;;;;4.85;0.95;;;;;;;;;;5038602;28;20058;-62
2023/08/08 11:29:35;;;;;;;3.53;1.15;;;;;;;;;;5030419;28;20033;-62
2023/08/08 11:32:02;;;;;;;5.47;1.10;;;;;;;;;;5040712;28;20428;-62
2023/08/08 11:34:30;;;;;;;2.60;0.73;;;;;;;;;;5033206;28;20138;-62
2023/08/08 11:36:58;;;;;;;6.30;1.17;;;;;;;;;;5040209;28;20852;-62
2023/08/08 11:39:24;;;;;;;3.92;0.93;;;;;;;;;;5025284;28;20081;-62
2023/08/08 11:41:50;;;;;;;4.43;1.25;;;;;;;;;;5039310;28;21269;-62
2023/08/08 11:44:17;;;;;;;6.95;1.17;;;;;;;;;;5026821;28;20069;-62
2023/08/08 11:46:45;;;;;;;5.55;1.00;;;;;;;;;;5040170;28;20039;-62
2023/08/08 11:49:11;;;;;;;6.28;0.90;;;;;;;;;;5025957;28;20029;-62
2023/08/08 11:51:37;;;;;;;7.72;1.33;;;;;;;;;;5040330;28;20040;-62
2023/08/08 11:54:04;;;;;;;5.32;1.40;;;;;;;;;;5032180;28;21934;-62
2023/08/08 11:56:33;;;;;;;6.35;1.15;;;;;;;;;;5040515;28;20598;-62
2023/08/08 11:59:00;;;;;;;3.85;0.90;;;;;;;;;;5025818;28;20052;-62
2023/08/08 12:01:27;;;;;;;5.38;1.08;;;;;;;;;;5039822;28;20863;-62
2023/08/08 12:03:54;;;;;;;6.75;1.63;;;;;;;;;;5033785;28;20036;-62
2023/08/08 12:06:20;;;;;;;4.22;1.17;;;;;;;;;;5040236;28;20114;-62
2023/08/08 12:08:47;;;;;;;4.20;1.00;;;;;;;;;;5032597;28;20034;-62
2023/08/08 12:11:13;;;;;;;8.20;1.30;;;;;;;;;;5039049;28;20110;-62
2023/08/08 12:13:41;;;;;;;4.78;1.15;;;;;;;;;;5031305;28;20037;-62
2023/08/08 12:16:09;;;;;;;7.88;1.33;;;;;;;;;;5039455;28;20028;-62
2023/08/08 12:18:37;;;;;;;5.70;1.20;;;;;;;;;;5032302;28;20107;-62
2023/08/08 12:21:03;;;;;;;6.30;1.42;;;;;;;;;;5010855;28;20120;-62
2023/08/08 12:23:29;;;;;;;7.00;1.00;;;;;;;;;;5032790;28;21145;-62
2023/08/08 12:25:55;;;;;;;6.32;1.25;;;;;;;;;;5038405;28;20032;-62
2023/08/08 12:28:21;;;;;;;5.03;1.63;;;;;;;;;;5033773;28;20033;-63
2023/08/08 12:30:47;;;;;;;9.48;2.03;;;;;;;;;;5038107;28;20075;-62
2023/08/08 12:33:13;;;;;;;7.75;1.42;;;;;;;;;;5036458;28;20384;-62
2023/08/08 12:35:39;;;;;;;8.68;1.48;;;;;;;;;;5036056;28;21007;-62
2023/08/08 12:38:05;;;;;;;6.05;1.35;;;;;;;;;;5036281;28;20037;-62
2023/08/08 12:40:32;;;;;;;6.68;1.52;;;;;;;;;;5032348;28;20039;-63
2023/08/08 12:42:58;;;;;;;4.97;0.95;;;;;;;;;;5029344;28;20024;-62
2023/08/08 12:45:24;;;;;;;6.72;1.20;;;;;;;;;;5033170;28;20032;-62
2023/08/08 12:47:50;;;;;;;3.67;0.95;;;;;;;;;;5030951;28;20621;-62
2023/08/08 12:50:16;;;;;;;7.93;1.00;;;;;;;;;;5031655;28;20337;-62
2023/08/08 12:52:42;;;;;;;4.80;1.30;;;;;;;;;;5031734;28;20025;-62
2023/08/08 12:55:11;;;;;;;5.97;1.40;;;;;;;;;;5032884;28;20101;-62
2023/08/08 12:57:37;;;;;;;5.22;1.02;;;;;;;;;;5032607;28;21051;-62
2023/08/08 13:00:03;;;;;;;6.57;1.30;;;;;;;;;;5031764;28;20041;-62
2023/08/08 13:02:29;;;;;;;5.80;1.52;;;;;;;;;;5032822;28;20033;-62
2023/08/08 13:04:55;;;;;;;8.85;1.38;;;;;;;;;;5030825;28;20056;-62
2023/08/08 13:07:22;;;;;;;6.15;1.08;;;;;;;;;;5033424;28;20030;-62
2023/08/08 13:09:48;;;;;;;10.00;1.30;;;;;;;;;;5029644;28;20036;-62
2023/08/08 13:12:14;;;;;;;7.90;1.48;;;;;;;;;;5039212;28;20045;-62
2023/08/08 13:14:40;;;;;;;7.53;1.50;;;;;;;;;;5031718;28;20118;-62
2023/08/08 13:17:06;;;;;;;5.80;1.10;;;;;;;;;;5038668;28;20062;-62
2023/08/08 13:19:32;;;;;;;6.97;1.20;;;;;;;;;;5031257;28;20102;-61
2023/08/08 13:21:58;;;;;;;4.75;1.30;;;;;;;;;;5038973;28;20650;-62
2023/08/08 13:24:24;;;;;;;6.10;1.23;;;;;;;;;;5031557;28;20041;-62
2023/08/08 13:26:50;;;;;;;14.60;1.75;;;;;;;;;;5038129;28;20214;-62
2023/08/08 13:29:16;;;;;;;5.55;1.40;;;;;;;;;;5031859;28;20120;-62
2023/08/08 13:31:43;;;;;;;5.78;1.15;;;;;;;;;;5038493;28;20033;-62
2023/08/08 13:34:09;;;;;;;5.82;1.30;;;;;;;;;;5031800;28;20710;-62
2023/08/08 13:36:35;;;;;;;5.00;0.98;;;;;;;;;;5038760;28;20338;-62
2023/08/08 13:39:01;;;;;;;3.35;0.73;;;;;;;;;;5030978;28;20045;-62
2023/08/08 13:41:27;;;;;;;6.88;1.25;;;;;;;;;;5038673;28;20036;-62
2023/08/08 13:43:53;;;;;;;6.00;1.08;;;;;;;;;;5031001;28;20115;-62
2023/08/08 13:46:19;;;;;;;4.07;1.30;;;;;;;;;;5038097;28;20047;-62
2023/08/08 13:48:45;;;;;;;6.15;1.30;;;;;;;;;;5030913;28;20041;-62
2023/08/08 13:51:11;;;;;;;3.72;1.05;;;;;;;;;;5037706;28;20080;-62
2023/08/08 13:53:37;;;;;;;8.55;1.10;;;;;;;;;;5031628;28;20030;-62
2023/08/08 13:56:04;;;;;;;6.40;1.50;;;;;;;;;;5037953;28;20082;-62
2023/08/08 13:58:30;;;;;;;5.78;1.50;;;;;;;;;;5038172;28;20173;-62
2023/08/08 14:00:59;;;;;;;5.15;1.05;;;;;;;;;;5037781;28;20037;-62
2023/08/08 14:03:25;;;;;;;3.03;0.90;;;;;;;;;;5032520;28;20029;-62
2023/08/08 14:05:52;;;;;;;4.25;1.10;;;;;;;;;;5036145;28;20467;-62
2023/08/08 14:08:18;;;;;;;6.53;1.50;;;;;;;;;;5038353;28;20148;-62
2023/08/08 14:10:44;;;;;;;3.70;0.98;;;;;;;;;;5038834;28;20392;-63
2023/08/08 14:13:11;;;;;;;5.78;1.42;;;;;;;;;;5037625;28;20085;-62
2023/08/08 14:15:37;;;;;;;3.67;0.93;;;;;;;;;;5038332;28;20036;-62
2023/08/08 14:18:03;;;;;;;5.03;1.02;;;;;;;;;;5037484;28;20128;-62
2023/08/08 14:20:30;;;;;;;8.70;1.10;;;;;;;;;;5038041;28;20078;-63
2023/08/08 14:22:56;;;;;;;4.35;0.70;;;;;;;;;;5037551;28;20064;-62
2023/08/08 14:25:22;;;;;;;4.07;0.90;;;;;;;;;;5037263;28;20513;-62
2023/08/08 14:27:48;;;;;;;4.90;1.40;;;;;;;;;;5037888;28;20029;-62
2023/08/08 14:30:14;;;;;;;7.95;1.20;;;;;;;;;;5030915;28;20035;-63
2023/08/08 14:32:40;;;;;;;6.47;1.38;;;;;;;;;;5037477;28;20040;-62
2023/08/08 14:35:08;;;;;;;6.15;1.45;;;;;;;;;;5035575;28;20803;-68
2023/08/08 14:37:34;;;;;;;12.82;1.80;;;;;;;;;;5037757;28;20052;-69
2023/08/08 14:40:00;;;;;;;7.53;1.52;;;;;;;;;;5038452;28;20041;-68
2023/08/08 14:42:27;;;;;;;4.25;1.23;;;;;;;;;;5036330;28;20517;-68